PAAQ METAR and TAF weather

Enter ICAO airport designator
Station Type Date Time Source
PAAQ METAR 2021/02/27 20:53 UTC NOAA

PAAQ 272053Z 17003KT 10SM BKN070 OVC180 M03/M05 A2940 RMK AO2 SLP961 T10281050 58019


Station Type Date Time Source
PAAQ Decoded METAR 2021/02/27 20:53 UTC NOAA

PALMER MUNICIPAL AIRPORT, AK, United States (PAAQ) 61-36N 149-06W
Feb 27, 2021 - 03:53 PM EST / 2021.02.27 2053 UTC
Wind: from the S (170 degrees) at 3 MPH (3 KT):0
Visibility: 10 mile(s):0
Sky conditions: overcast
Temperature: 27.0 F (-2.8 C)
Dew Point: 23.0 F (-5.0 C)
Relative Humidity: 84%
Pressure (altimeter): 29.4 in. Hg (995 hPa)
Pressure tendency: 0.06 inches (1.9 hPa) lower than three hours ago
ob: PAAQ 272053Z 17003KT 10SM BKN070 OVC180 M03/M05 A2940 RMK AO2 SLP961 T10281050 58019
cycle: 21

Station Type Date Time Source
PAAQ TAF 2021/02/27 18:30 UTC NOAA

TAF PAAQ 271729Z 2718/2818 36011KT P6SM OVC050
FM280000 VRB06KT P6SM SCT025 OVC035

Example: see airport list